This is the latest recevied weather packets stored in our database for station/object SA7AHC. If no packets are shown the sender has not sent any weather packets the latest 10 day(s).
| Time | Temp. | Humidity | Pressure | Rain* | Wind** | Luminosity | Snow |
|---|---|---|---|---|---|---|---|
| 1777969266 | 10° C | 61% | 1010.7 hPa | 0 mm | - | 656 W/m² | - |
| 1777968659 | 9.44° C | 63% | 1010.6 hPa | 0 mm | - | 635 W/m² | - |
| 1777968057 | 9.44° C | 68% | 1010.6 hPa | 0 mm | - | 687 W/m² | - |
| 1777967765 | 9.44° C | 71% | 1010.6 hPa | 0 mm | - | 555 W/m² | - |
| 1777966854 | 8.89° C | 72% | 1010.6 hPa | 0 mm | - | 577 W/m² | - |
| 1777966251 | 8.33° C | 75% | 1010.4 hPa | 0 mm | - | 195 W/m² | - |
| 1777965654 | 8.33° C | 74% | 1010.4 hPa | 0 mm | - | 199 W/m² | - |
| 1777965054 | 8.33° C | 77% | 1010.4 hPa | 0 mm | - | 594 W/m² | - |
| 1777964451 | 7.78° C | 80% | 1010.2 hPa | 0 mm | - | 107 W/m² | - |
| 1777963847 | 7.78° C | 82% | 1010.3 hPa | 0 mm | - | 504 W/m² | - |
| 1777963249 | 7.22° C | 84% | 1010.3 hPa | 0 mm | - | 364 W/m² | - |
| 1777962646 | 7.22° C | 85% | 1010.2 hPa | 0 mm | - | 271 W/m² | - |
| 1777962040 | 6.67° C | 87% | 1010.2 hPa | 0 mm | - | 248 W/m² | - |
| 1777961439 | 6.67° C | 87% | 1010.2 hPa | 0 mm | - | 105 W/m² | - |
| 1777960838 | 6.67° C | 86% | 1010 hPa | 0 mm | - | 156 W/m² | - |
| 1777960236 | 6.67° C | 87% | 1009.9 hPa | 0 mm | - | 149 W/m² | - |
| 1777959639 | 6.67° C | 87% | 1009.9 hPa | 0 mm | - | 116 W/m² | - |
| 1777959039 | 6.11° C | 88% | 1009.8 hPa | 0 mm | - | 132 W/m² | - |
| 1777958435 | 6.11° C | 89% | 1009.7 hPa | 0 mm | - | 134 W/m² | - |
| 1777957838 | 5.56° C | 89% | 1009.7 hPa | 0 mm | - | 70 W/m² | - |
| 1777957235 | 5.56° C | 90% | 1009.7 hPa | 0 mm | - | 93 W/m² | - |
| 1777956634 | 5.56° C | 89% | 1009.6 hPa | 0 mm | - | 67 W/m² | - |
| 1777956035 | 5.56° C | 90% | 1009.6 hPa | 0 mm | - | 56 W/m² | - |
| 1777955434 | 5.56° C | 89% | 1009.6 hPa | 0 mm | - | 56 W/m² | - |
| 1777954836 | 5.56° C | 89% | 1009.5 hPa | 0 mm | - | 49 W/m² | - |
* Rain latest hour (hover to see other rain measurements)
** Current wind speed in m/s (hover to see current wind gust speed)